sensor_id;sensor_type;location;lat;lon;timestamp;pressure;altitude;pressure_sealevel;temperature;humidity
46614;BME280;32338;50.430;6.806;2022-07-25T00:01:56;96469.72;;;18.83;80.57
46614;BME280;32338;50.430;6.806;2022-07-25T00:04:23;96467.00;;;18.77;80.54
46614;BME280;32338;50.430;6.806;2022-07-25T00:06:50;96467.53;;;18.57;81.34
46614;BME280;32338;50.430;6.806;2022-07-25T00:09:16;96462.38;;;18.51;84.71
46614;BME280;32338;50.430;6.806;2022-07-25T00:11:44;96465.63;;;18.36;84.91
46614;BME280;32338;50.430;6.806;2022-07-25T00:14:11;96467.31;;;18.42;83.51
46614;BME280;32338;50.430;6.806;2022-07-25T00:16:38;96460.16;;;18.47;83.33
46614;BME280;32338;50.430;6.806;2022-07-25T00:19:04;96450.22;;;18.43;82.31
46614;BME280;32338;50.430;6.806;2022-07-25T00:21:31;96461.09;;;18.36;83.90
46614;BME280;32338;50.430;6.806;2022-07-25T00:23:58;96449.84;;;18.34;83.83
46614;BME280;32338;50.430;6.806;2022-07-25T00:26:24;96443.91;;;18.32;83.04
46614;BME280;32338;50.430;6.806;2022-07-25T00:28:53;96442.81;;;18.28;83.46
46614;BME280;32338;50.430;6.806;2022-07-25T00:31:20;96440.03;;;18.23;83.32
46614;BME280;32338;50.430;6.806;2022-07-25T00:33:46;96440.03;;;18.23;84.75
46614;BME280;32338;50.430;6.806;2022-07-25T00:36:13;96438.91;;;18.19;84.81
46614;BME280;32338;50.430;6.806;2022-07-25T00:38:40;96433.75;;;17.95;86.76
46614;BME280;32338;50.430;6.806;2022-07-25T00:41:06;96429.75;;;17.63;88.94
46614;BME280;32338;50.430;6.806;2022-07-25T00:43:33;96424.28;;;17.41;89.45
46614;BME280;32338;50.430;6.806;2022-07-25T00:46:01;96424.59;;;17.28;90.23
46614;BME280;32338;50.430;6.806;2022-07-25T00:48:28;96429.94;;;16.99;91.19
46614;BME280;32338;50.430;6.806;2022-07-25T00:50:55;96425.34;;;17.11;92.29
46614;BME280;32338;50.430;6.806;2022-07-25T00:53:22;96423.22;;;17.25;91.85
46614;BME280;32338;50.430;6.806;2022-07-25T00:55:49;96425.16;;;17.30;93.18
46614;BME280;32338;50.430;6.806;2022-07-25T00:58:16;96425.66;;;17.27;93.54
46614;BME280;32338;50.430;6.806;2022-07-25T01:00:43;96424.38;;;17.46;92.00
46614;BME280;32338;50.430;6.806;2022-07-25T01:03:11;96426.56;;;17.49;90.91
46614;BME280;32338;50.430;6.806;2022-07-25T01:05:38;96422.84;;;17.50;89.00
46614;BME280;32338;50.430;6.806;2022-07-25T01:08:05;96417.97;;;17.47;90.21
46614;BME280;32338;50.430;6.806;2022-07-25T01:10:32;96431.34;;;17.47;93.02
46614;BME280;32338;50.430;6.806;2022-07-25T01:12:59;96418.31;;;17.34;92.11
46614;BME280;32338;50.430;6.806;2022-07-25T01:15:26;96424.53;;;17.40;92.23
46614;BME280;32338;50.430;6.806;2022-07-25T01:17:52;96426.25;;;17.46;90.30
46614;BME280;32338;50.430;6.806;2022-07-25T01:20:22;96416.44;;;17.34;89.47
46614;BME280;32338;50.430;6.806;2022-07-25T01:22:49;96419.38;;;17.21;91.07
46614;BME280;32338;50.430;6.806;2022-07-25T01:25:16;96413.72;;;17.17;91.93
46614;BME280;32338;50.430;6.806;2022-07-25T01:27:44;96404.66;;;17.18;92.50
46614;BME280;32338;50.430;6.806;2022-07-25T01:30:13;96404.16;;;17.05;92.66
46614;BME280;32338;50.430;6.806;2022-07-25T01:32:41;96401.78;;;16.79;95.10
46614;BME280;32338;50.430;6.806;2022-07-25T01:35:09;96401.09;;;16.72;96.54
46614;BME280;32338;50.430;6.806;2022-07-25T01:37:38;96396.19;;;16.81;98.50
46614;BME280;32338;50.430;6.806;2022-07-25T01:40:06;96399.78;;;16.86;96.64
46614;BME280;32338;50.430;6.806;2022-07-25T01:42:33;96393.63;;;16.86;94.23
46614;BME280;32338;50.430;6.806;2022-07-25T01:45:00;96396.19;;;16.93;94.04
46614;BME280;32338;50.430;6.806;2022-07-25T01:47:26;96395.38;;;16.92;95.24
46614;BME280;32338;50.430;6.806;2022-07-25T01:49:53;96395.84;;;16.89;94.59
46614;BME280;32338;50.430;6.806;2022-07-25T01:52:20;96396.41;;;16.91;93.79
46614;BME280;32338;50.430;6.806;2022-07-25T01:54:48;96386.44;;;16.86;93.13
46614;BME280;32338;50.430;6.806;2022-07-25T01:57:15;96384.97;;;16.79;93.74
46614;BME280;32338;50.430;6.806;2022-07-25T01:59:41;96384.56;;;16.58;97.43
46614;BME280;32338;50.430;6.806;2022-07-25T02:02:09;96382.28;;;16.38;98.52
46614;BME280;32338;50.430;6.806;2022-07-25T02:04:36;96387.03;;;16.48;98.22
46614;BME280;32338;50.430;6.806;2022-07-25T02:07:03;96375.41;;;16.54;97.02
46614;BME280;32338;50.430;6.806;2022-07-25T02:09:29;96382.72;;;16.47;97.15
46614;BME280;32338;50.430;6.806;2022-07-25T02:11:58;96378.63;;;16.56;97.42
46614;BME280;32338;50.430;6.806;2022-07-25T02:14:24;96367.84;;;16.63;97.62
46614;BME280;32338;50.430;6.806;2022-07-25T02:16:51;96380.75;;;16.54;97.62
46614;BME280;32338;50.430;6.806;2022-07-25T02:19:18;96367.75;;;16.58;97.71
46614;BME280;32338;50.430;6.806;2022-07-25T02:21:45;96371.47;;;16.57;97.84
46614;BME280;32338;50.430;6.806;2022-07-25T02:24:12;96372.59;;;16.61;97.33
46614;BME280;32338;50.430;6.806;2022-07-25T02:26:38;96369.34;;;16.59;97.59
46614;BME280;32338;50.430;6.806;2022-07-25T02:29:06;96366.13;;;16.57;95.98
46614;BME280;32338;50.430;6.806;2022-07-25T02:31:33;96363.81;;;16.48;95.79
46614;BME280;32338;50.430;6.806;2022-07-25T02:34:00;96357.69;;;16.36;96.57
46614;BME280;32338;50.430;6.806;2022-07-25T02:36:27;96349.94;;;16.34;96.33
46614;BME280;32338;50.430;6.806;2022-07-25T02:38:53;96348.91;;;16.24;97.91
46614;BME280;32338;50.430;6.806;2022-07-25T02:41:20;96339.44;;;16.28;97.58
46614;BME280;32338;50.430;6.806;2022-07-25T02:43:47;96337.69;;;16.21;98.69
46614;BME280;32338;50.430;6.806;2022-07-25T02:46:15;96341.50;;;16.26;99.12
46614;BME280;32338;50.430;6.806;2022-07-25T02:48:41;96339.44;;;16.28;97.66
46614;BME280;32338;50.430;6.806;2022-07-25T02:51:08;96337.31;;;16.30;98.36
46614;BME280;32338;50.430;6.806;2022-07-25T02:53:35;96330.50;;;16.34;98.37
46614;BME280;32338;50.430;6.806;2022-07-25T02:56:01;96335.47;;;16.30;97.61
46614;BME280;32338;50.430;6.806;2022-07-25T02:58:28;96331.44;;;16.28;98.99
46614;BME280;32338;50.430;6.806;2022-07-25T03:00:55;96333.63;;;16.31;99.89
46614;BME280;32338;50.430;6.806;2022-07-25T03:03:23;96334.91;;;16.28;100.00
46614;BME280;32338;50.430;6.806;2022-07-25T03:05:49;96329.91;;;16.32;100.00
46614;BME280;32338;50.430;6.806;2022-07-25T03:08:16;96320.97;;;16.38;98.85
46614;BME280;32338;50.430;6.806;2022-07-25T03:10:42;96331.63;;;16.38;96.83
46614;BME280;32338;50.430;6.806;2022-07-25T03:13:09;96320.16;;;16.37;98.30
46614;BME280;32338;50.430;6.806;2022-07-25T03:15:36;96315.19;;;16.29;98.44
46614;BME280;32338;50.430;6.806;2022-07-25T03:18:03;96319.72;;;16.29;100.00
46614;BME280;32338;50.430;6.806;2022-07-25T03:20:31;96312.53;;;16.17;100.00
46614;BME280;32338;50.430;6.806;2022-07-25T03:22:57;96316.84;;;16.18;100.00
46614;BME280;32338;50.430;6.806;2022-07-25T03:25:24;96301.06;;;16.29;99.78
46614;BME280;32338;50.430;6.806;2022-07-25T03:27:51;96308.25;;;16.28;99.29
46614;BME280;32338;50.430;6.806;2022-07-25T03:30:17;96303.16;;;16.27;97.99
46614;BME280;32338;50.430;6.806;2022-07-25T03:32:44;96308.94;;;16.24;100.00
46614;BME280;32338;50.430;6.806;2022-07-25T03:35:11;96299.44;;;16.28;100.00
46614;BME280;32338;50.430;6.806;2022-07-25T03:37:39;96303.94;;;16.27;97.81
46614;BME280;32338;50.430;6.806;2022-07-25T03:40:06;96291.56;;;16.21;99.11
46614;BME280;32338;50.430;6.806;2022-07-25T03:42:33;96291.22;;;16.17;100.00
46614;BME280;32338;50.430;6.806;2022-07-25T03:45:00;96297.03;;;16.14;100.00
46614;BME280;32338;50.430;6.806;2022-07-25T03:47:27;96290.91;;;16.02;100.00
46614;BME280;32338;50.430;6.806;2022-07-25T03:49:53;96287.66;;;15.76;100.00
46614;BME280;32338;50.430;6.806;2022-07-25T03:52:20;96278.78;;;15.70;100.00
46614;BME280;32338;50.430;6.806;2022-07-25T03:54:48;96283.97;;;15.77;100.00
46614;BME280;32338;50.430;6.806;2022-07-25T03:57:15;96280.16;;;15.73;100.00
46614;BME280;32338;50.430;6.806;2022-07-25T03:59:41;96275.88;;;15.72;100.00
46614;BME280;32338;50.430;6.806;2022-07-25T04:02:08;96275.78;;;15.79;100.00
46614;BME280;32338;50.430;6.806;2022-07-25T04:04:35;96278.19;;;15.80;100.00
46614;BME280;32338;50.430;6.806;2022-07-25T04:07:02;96276.91;;;15.95;100.00
46614;BME280;32338;50.430;6.806;2022-07-25T04:09:28;96275.19;;;15.88;100.00
46614;BME280;32338;50.430;6.806;2022-07-25T04:11:56;96277.59;;;15.78;100.00
46614;BME280;32338;50.430;6.806;2022-07-25T04:14:23;96276.81;;;15.78;100.00
46614;BME280;32338;50.430;6.806;2022-07-25T04:16:50;96273.22;;;15.60;100.00
46614;BME280;32338;50.430;6.806;2022-07-25T04:19:16;96271.94;;;15.51;100.00
46614;BME280;32338;50.430;6.806;2022-07-25T04:21:43;96260.59;;;15.32;100.00
46614;BME280;32338;50.430;6.806;2022-07-25T04:24:09;96267.69;;;15.26;100.00
46614;BME280;32338;50.430;6.806;2022-07-25T04:26:36;96267.09;;;15.36;100.00
46614;BME280;32338;50.430;6.806;2022-07-25T04:29:04;96264.78;;;15.51;100.00
46614;BME280;32338;50.430;6.806;2022-07-25T04:31:31;96261.88;;;15.65;100.00
46614;BME280;32338;50.430;6.806;2022-07-25T04:33:57;96256.09;;;15.68;100.00
46614;BME280;32338;50.430;6.806;2022-07-25T04:36:24;96253.22;;;15.57;100.00
46614;BME280;32338;50.430;6.806;2022-07-25T04:38:51;96253.53;;;15.73;100.00
46614;BME280;32338;50.430;6.806;2022-07-25T04:41:18;96249.34;;;15.77;100.00
46614;BME280;32338;50.430;6.806;2022-07-25T04:43:44;96247.50;;;15.78;100.00
46614;BME280;32338;50.430;6.806;2022-07-25T04:46:16;96244.59;;;15.79;100.00
46614;BME280;32338;50.430;6.806;2022-07-25T04:48:43;96254.13;;;15.87;100.00
46614;BME280;32338;50.430;6.806;2022-07-25T04:51:10;96244.16;;;15.94;100.00
46614;BME280;32338;50.430;6.806;2022-07-25T04:53:36;96251.91;;;15.96;100.00
46614;BME280;32338;50.430;6.806;2022-07-25T04:56:04;96243.31;;;16.05;100.00
46614;BME280;32338;50.430;6.806;2022-07-25T04:58:31;96244.09;;;16.06;100.00
46614;BME280;32338;50.430;6.806;2022-07-25T05:00:57;96233.88;;;16.15;100.00
46614;BME280;32338;50.430;6.806;2022-07-25T05:03:25;96236.25;;;16.11;100.00
46614;BME280;32338;50.430;6.806;2022-07-25T05:05:52;96245.13;;;16.17;100.00
46614;BME280;32338;50.430;6.806;2022-07-25T05:08:19;96248.03;;;16.15;100.00
46614;BME280;32338;50.430;6.806;2022-07-25T05:10:45;96245.47;;;16.20;100.00
46614;BME280;32338;50.430;6.806;2022-07-25T05:13:12;96246.50;;;16.19;100.00
46614;BME280;32338;50.430;6.806;2022-07-25T05:15:39;96247.09;;;16.21;100.00
46614;BME280;32338;50.430;6.806;2022-07-25T05:18:05;96241.59;;;16.28;100.00
46614;BME280;32338;50.430;6.806;2022-07-25T05:20:33;96233.59;;;16.28;100.00
46614;BME280;32338;50.430;6.806;2022-07-25T05:23:00;96227.91;;;16.36;100.00
46614;BME280;32338;50.430;6.806;2022-07-25T05:25:26;96225.00;;;16.38;100.00
46614;BME280;32338;50.430;6.806;2022-07-25T05:27:53;96222.34;;;16.38;100.00
46614;BME280;32338;50.430;6.806;2022-07-25T05:30:23;96220.13;;;16.35;100.00
46614;BME280;32338;50.430;6.806;2022-07-25T05:32:50;96219.09;;;16.36;100.00
46614;BME280;32338;50.430;6.806;2022-07-25T05:35:16;96218.81;;;16.49;100.00
46614;BME280;32338;50.430;6.806;2022-07-25T05:37:44;96213.31;;;16.56;100.00
46614;BME280;32338;50.430;6.806;2022-07-25T05:40:11;96214.81;;;16.64;100.00
46614;BME280;32338;50.430;6.806;2022-07-25T05:42:38;96210.44;;;16.75;100.00
46614;BME280;32338;50.430;6.806;2022-07-25T05:45:06;96207.44;;;16.88;100.00
46614;BME280;32338;50.430;6.806;2022-07-25T05:47:32;96206.59;;;16.99;100.00
46614;BME280;32338;50.430;6.806;2022-07-25T05:49:59;96205.38;;;17.07;100.00
46614;BME280;32338;50.430;6.806;2022-07-25T05:52:25;96202.31;;;17.15;100.00
46614;BME280;32338;50.430;6.806;2022-07-25T05:54:55;96197.91;;;17.26;100.00
46614;BME280;32338;50.430;6.806;2022-07-25T05:57:22;96199.59;;;17.32;100.00
46614;BME280;32338;50.430;6.806;2022-07-25T05:59:48;96205.38;;;17.46;100.00
46614;BME280;32338;50.430;6.806;2022-07-25T06:02:15;96195.09;;;17.55;100.00
46614;BME280;32338;50.430;6.806;2022-07-25T06:04:41;96188.47;;;17.58;100.00
46614;BME280;32338;50.430;6.806;2022-07-25T06:07:08;96200.09;;;17.69;100.00
46614;BME280;32338;50.430;6.806;2022-07-25T06:09:35;96202.34;;;17.77;100.00
46614;BME280;32338;50.430;6.806;2022-07-25T06:12:03;96200.19;;;17.79;100.00
46614;BME280;32338;50.430;6.806;2022-07-25T06:14:30;96204.22;;;17.98;100.00
46614;BME280;32338;50.430;6.806;2022-07-25T06:16:57;96198.88;;;17.98;100.00
46614;BME280;32338;50.430;6.806;2022-07-25T06:19:23;96198.19;;;18.08;100.00
46614;BME280;32338;50.430;6.806;2022-07-25T06:21:50;96188.25;;;18.31;100.00
46614;BME280;32338;50.430;6.806;2022-07-25T06:24:17;96199.97;;;18.52;100.00
46614;BME280;32338;50.430;6.806;2022-07-25T06:26:43;96193.28;;;18.82;95.88
46614;BME280;32338;50.430;6.806;2022-07-25T06:29:11;96188.09;;;19.03;97.44
46614;BME280;32338;50.430;6.806;2022-07-25T06:31:38;96186.06;;;19.15;100.00
46614;BME280;32338;50.430;6.806;2022-07-25T06:34:05;96186.94;;;19.26;99.17
46614;BME280;32338;50.430;6.806;2022-07-25T06:36:31;96192.66;;;19.45;96.93
46614;BME280;32338;50.430;6.806;2022-07-25T06:38:58;96186.81;;;19.48;100.00
46614;BME280;32338;50.430;6.806;2022-07-25T06:41:25;96195.13;;;19.52;100.00
46614;BME280;32338;50.430;6.806;2022-07-25T06:43:52;96189.25;;;19.55;98.94
46614;BME280;32338;50.430;6.806;2022-07-25T06:46:20;96192.53;;;19.67;98.87
46614;BME280;32338;50.430;6.806;2022-07-25T06:48:46;96194.69;;;19.75;98.67
46614;BME280;32338;50.430;6.806;2022-07-25T06:51:13;96188.88;;;19.84;95.52
46614;BME280;32338;50.430;6.806;2022-07-25T06:53:40;96188.97;;;20.04;97.19
46614;BME280;32338;50.430;6.806;2022-07-25T06:56:07;96192.16;;;20.06;89.01
46614;BME280;32338;50.430;6.806;2022-07-25T06:58:33;96188.44;;;20.18;84.53
46614;BME280;32338;50.430;6.806;2022-07-25T07:01:00;96189.59;;;20.42;84.45
46614;BME280;32338;50.430;6.806;2022-07-25T07:03:28;96190.13;;;20.50;81.90
46614;BME280;32338;50.430;6.806;2022-07-25T07:05:56;96188.81;;;20.63;79.23
46614;BME280;32338;50.430;6.806;2022-07-25T07:08:22;96185.56;;;20.61;80.46
46614;BME280;32338;50.430;6.806;2022-07-25T07:10:49;96185.84;;;20.64;80.13
46614;BME280;32338;50.430;6.806;2022-07-25T07:13:16;96189.88;;;20.67;77.79
46614;BME280;32338;50.430;6.806;2022-07-25T07:15:44;96184.78;;;20.70;78.83
46614;BME280;32338;50.430;6.806;2022-07-25T07:18:13;96186.69;;;20.75;78.09
46614;BME280;32338;50.430;6.806;2022-07-25T07:20:41;96184.81;;;20.91;77.99
46614;BME280;32338;50.430;6.806;2022-07-25T07:23:08;96190.47;;;20.95;75.94
46614;BME280;32338;50.430;6.806;2022-07-25T07:25:35;96187.22;;;21.29;74.46
46614;BME280;32338;50.430;6.806;2022-07-25T07:28:02;96170.84;;;21.10;76.00
46614;BME280;32338;50.430;6.806;2022-07-25T07:30:29;96180.25;;;21.12;76.66
46614;BME280;32338;50.430;6.806;2022-07-25T07:32:55;96181.06;;;21.08;76.56
46614;BME280;32338;50.430;6.806;2022-07-25T07:35:22;96185.31;;;21.24;74.67
46614;BME280;32338;50.430;6.806;2022-07-25T07:37:51;96177.78;;;21.31;76.21
46614;BME280;32338;50.430;6.806;2022-07-25T07:40:19;96178.03;;;21.40;73.78
46614;BME280;32338;50.430;6.806;2022-07-25T07:42:47;96184.72;;;21.53;71.96
46614;BME280;32338;50.430;6.806;2022-07-25T07:45:16;96179.59;;;21.67;70.32
46614;BME280;32338;50.430;6.806;2022-07-25T07:47:43;96172.28;;;21.83;68.53
46614;BME280;32338;50.430;6.806;2022-07-25T07:50:12;96180.28;;;22.03;68.66
46614;BME280;32338;50.430;6.806;2022-07-25T07:52:39;96172.13;;;22.19;66.50
46614;BME280;32338;50.430;6.806;2022-07-25T07:55:08;96159.72;;;22.23;65.44
46614;BME280;32338;50.430;6.806;2022-07-25T07:57:53;96144.91;;;22.26;66.25
46614;BME280;32338;50.430;6.806;2022-07-25T08:00:20;96139.47;;;22.31;67.85
46614;BME280;32338;50.430;6.806;2022-07-25T08:02:49;96151.59;;;22.33;66.30
46614;BME280;32338;50.430;6.806;2022-07-25T08:05:19;96148.91;;;22.39;65.60
46614;BME280;32338;50.430;6.806;2022-07-25T08:07:47;96152.06;;;22.51;63.18
46614;BME280;32338;50.430;6.806;2022-07-25T08:10:19;96160.53;;;22.69;62.49
46614;BME280;32338;50.430;6.806;2022-07-25T08:12:46;96155.94;;;23.04;63.12
46614;BME280;32338;50.430;6.806;2022-07-25T08:15:13;96157.56;;;22.99;62.02
46614;BME280;32338;50.430;6.806;2022-07-25T08:17:39;96165.91;;;23.03;62.75
46614;BME280;32338;50.430;6.806;2022-07-25T08:20:07;96168.81;;;23.07;62.44
46614;BME280;32338;50.430;6.806;2022-07-25T08:22:35;96155.41;;;23.31;61.70
46614;BME280;32338;50.430;6.806;2022-07-25T08:25:02;96158.03;;;23.41;61.83
46614;BME280;32338;50.430;6.806;2022-07-25T08:27:30;96157.03;;;23.32;63.18
46614;BME280;32338;50.430;6.806;2022-07-25T08:29:57;96148.09;;;23.37;62.26
46614;BME280;32338;50.430;6.806;2022-07-25T08:32:25;96155.25;;;23.46;62.51
46614;BME280;32338;50.430;6.806;2022-07-25T08:34:52;96149.28;;;23.50;63.12
46614;BME280;32338;50.430;6.806;2022-07-25T08:37:19;96159.69;;;23.61;62.03
46614;BME280;32338;50.430;6.806;2022-07-25T08:39:45;96155.94;;;23.57;62.66
46614;BME280;32338;50.430;6.806;2022-07-25T08:42:12;96155.91;;;23.62;62.80
46614;BME280;32338;50.430;6.806;2022-07-25T08:44:43;96156.09;;;23.90;61.34
46614;BME280;32338;50.430;6.806;2022-07-25T08:47:14;96153.81;;;24.03;59.42
46614;BME280;32338;50.430;6.806;2022-07-25T08:49:41;96144.34;;;24.05;58.38
46614;BME280;32338;50.430;6.806;2022-07-25T08:52:08;96125.09;;;24.12;59.63
46614;BME280;32338;50.430;6.806;2022-07-25T08:54:34;96137.25;;;24.28;59.77
46614;BME280;32338;50.430;6.806;2022-07-25T08:57:02;96144.19;;;24.35;61.10
46614;BME280;32338;50.430;6.806;2022-07-25T08:59:30;96139.06;;;24.52;59.92
46614;BME280;32338;50.430;6.806;2022-07-25T09:01:59;96143.28;;;24.58;57.74
46614;BME280;32338;50.430;6.806;2022-07-25T09:04:28;96151.19;;;24.55;59.54
46614;BME280;32338;50.430;6.806;2022-07-25T09:06:55;96138.56;;;24.69;55.90
46614;BME280;32338;50.430;6.806;2022-07-25T09:09:29;96141.06;;;24.66;58.06
46614;BME280;32338;50.430;6.806;2022-07-25T09:11:56;96145.53;;;24.89;56.30
46614;BME280;32338;50.430;6.806;2022-07-25T09:14:22;96145.88;;;25.02;56.10
46614;BME280;32338;50.430;6.806;2022-07-25T09:16:49;96153.03;;;25.25;55.55
46614;BME280;32338;50.430;6.806;2022-07-25T09:19:19;96148.50;;;25.35;53.93
46614;BME280;32338;50.430;6.806;2022-07-25T09:21:58;96155.69;;;25.58;53.58
46614;BME280;32338;50.430;6.806;2022-07-25T09:24:25;96151.56;;;25.75;52.43
46614;BME280;32338;50.430;6.806;2022-07-25T09:27:07;96153.94;;;26.04;51.64
46614;BME280;32338;50.430;6.806;2022-07-25T09:29:35;96158.38;;;26.14;52.47
46614;BME280;32338;50.430;6.806;2022-07-25T09:32:14;96170.97;;;26.19;53.63
46614;BME280;32338;50.430;6.806;2022-07-25T09:34:44;96166.66;;;26.32;50.82
46614;BME280;32338;50.430;6.806;2022-07-25T09:37:13;96158.66;;;26.27;51.19
46614;BME280;32338;50.430;6.806;2022-07-25T09:39:41;96164.88;;;25.99;51.13
46614;BME280;32338;50.430;6.806;2022-07-25T09:42:22;96169.00;;;25.83;52.07
46614;BME280;32338;50.430;6.806;2022-07-25T09:45:00;96169.59;;;25.66;52.64
46614;BME280;32338;50.430;6.806;2022-07-25T09:47:29;96159.56;;;25.66;51.42
46614;BME280;32338;50.430;6.806;2022-07-25T09:49:57;96164.41;;;25.69;53.16
46614;BME280;32338;50.430;6.806;2022-07-25T09:52:24;96171.91;;;25.58;55.39
46614;BME280;32338;50.430;6.806;2022-07-25T09:54:51;96171.00;;;25.49;54.43
46614;BME280;32338;50.430;6.806;2022-07-25T09:57:19;96172.00;;;25.53;54.28
46614;BME280;32338;50.430;6.806;2022-07-25T09:59:45;96178.19;;;25.54;55.57
46614;BME280;32338;50.430;6.806;2022-07-25T10:02:19;96176.31;;;25.40;54.88
46614;BME280;32338;50.430;6.806;2022-07-25T10:04:58;96170.75;;;25.32;55.76
46614;BME280;32338;50.430;6.806;2022-07-25T10:07:32;96164.25;;;25.33;55.05
46614;BME280;32338;50.430;6.806;2022-07-25T10:10:02;96145.81;;;25.35;57.10
46614;BME280;32338;50.430;6.806;2022-07-25T10:12:29;96146.44;;;25.32;57.91
46614;BME280;32338;50.430;6.806;2022-07-25T10:15:04;96151.75;;;25.37;57.24
46614;BME280;32338;50.430;6.806;2022-07-25T10:17:32;96139.94;;;25.33;56.96
46614;BME280;32338;50.430;6.806;2022-07-25T10:20:00;96144.31;;;25.29;55.32
46614;BME280;32338;50.430;6.806;2022-07-25T10:22:38;96158.44;;;25.25;59.87
46614;BME280;32338;50.430;6.806;2022-07-25T10:25:13;96163.94;;;25.20;60.47
46614;BME280;32338;50.430;6.806;2022-07-25T10:27:44;96174.13;;;25.23;60.81
46614;BME280;32338;50.430;6.806;2022-07-25T10:30:20;96177.84;;;25.28;63.62
46614;BME280;32338;50.430;6.806;2022-07-25T10:32:56;96189.38;;;25.33;66.54
46614;BME280;32338;50.430;6.806;2022-07-25T10:35:25;96211.41;;;25.27;60.27
46614;BME280;32338;50.430;6.806;2022-07-25T10:37:53;96217.69;;;25.22;59.48
46614;BME280;32338;50.430;6.806;2022-07-25T10:40:28;96208.16;;;25.11;58.21
46614;BME280;32338;50.430;6.806;2022-07-25T10:43:10;96176.31;;;25.07;58.22
46614;BME280;32338;50.430;6.806;2022-07-25T10:45:40;96152.06;;;25.02;58.72
46614;BME280;32338;50.430;6.806;2022-07-25T10:48:18;96158.50;;;25.06;59.41
46614;BME280;32338;50.430;6.806;2022-07-25T10:50:51;96178.13;;;25.12;66.40
46614;BME280;32338;50.430;6.806;2022-07-25T10:53:33;96179.44;;;25.15;66.21
46614;BME280;32338;50.430;6.806;2022-07-25T10:56:05;96168.22;;;25.21;70.94
46614;BME280;32338;50.430;6.806;2022-07-25T10:58:44;96179.13;;;25.16;70.35
46614;BME280;32338;50.430;6.806;2022-07-25T11:01:11;96175.84;;;25.33;68.33
46614;BME280;32338;50.430;6.806;2022-07-25T11:03:40;96177.84;;;25.28;68.49
46614;BME280;32338;50.430;6.806;2022-07-25T11:06:11;96174.66;;;25.25;68.40
46614;BME280;32338;50.430;6.806;2022-07-25T11:08:39;96169.94;;;25.31;64.23
46614;BME280;32338;50.430;6.806;2022-07-25T11:11:07;96164.19;;;25.38;66.24
46614;BME280;32338;50.430;6.806;2022-07-25T11:13:37;96174.00;;;25.48;65.08
46614;BME280;32338;50.430;6.806;2022-07-25T11:16:05;96172.41;;;25.47;66.89
46614;BME280;32338;50.430;6.806;2022-07-25T11:18:33;96172.69;;;25.45;65.25
46614;BME280;32338;50.430;6.806;2022-07-25T11:21:01;96173.31;;;25.56;62.98
46614;BME280;32338;50.430;6.806;2022-07-25T11:23:30;96187.97;;;25.83;60.71
46614;BME280;32338;50.430;6.806;2022-07-25T11:26:07;96175.72;;;25.57;61.52
46614;BME280;32338;50.430;6.806;2022-07-25T11:28:39;96180.84;;;25.59;60.64
46614;BME280;32338;50.430;6.806;2022-07-25T11:31:06;96186.41;;;25.49;60.77
46614;BME280;32338;50.430;6.806;2022-07-25T11:33:34;96178.13;;;25.73;62.40
46614;BME280;32338;50.430;6.806;2022-07-25T11:36:01;96177.41;;;25.81;59.86
46614;BME280;32338;50.430;6.806;2022-07-25T11:38:30;96179.03;;;25.82;61.25
46614;BME280;32338;50.430;6.806;2022-07-25T11:40:57;96177.03;;;25.88;59.42
46614;BME280;32338;50.430;6.806;2022-07-25T11:43:24;96163.88;;;25.95;58.94
46614;BME280;32338;50.430;6.806;2022-07-25T11:45:55;96167.09;;;25.97;58.22
46614;BME280;32338;50.430;6.806;2022-07-25T11:48:29;96170.00;;;26.01;60.35
46614;BME280;32338;50.430;6.806;2022-07-25T11:50:56;96166.88;;;26.21;57.07
46614;BME280;32338;50.430;6.806;2022-07-25T11:53:23;96161.13;;;26.37;57.11
46614;BME280;32338;50.430;6.806;2022-07-25T11:55:52;96152.50;;;26.58;55.21
46614;BME280;32338;50.430;6.806;2022-07-25T11:58:22;96156.78;;;26.73;54.53
46614;BME280;32338;50.430;6.806;2022-07-25T12:00:50;96149.69;;;26.77;55.98
46614;BME280;32338;50.430;6.806;2022-07-25T12:03:17;96161.09;;;26.96;54.07
46614;BME280;32338;50.430;6.806;2022-07-25T12:05:44;96144.81;;;27.19;52.41
46614;BME280;32338;50.430;6.806;2022-07-25T12:08:13;96146.44;;;27.29;52.79
46614;BME280;32338;50.430;6.806;2022-07-25T12:10:41;96154.72;;;27.24;52.41
46614;BME280;32338;50.430;6.806;2022-07-25T12:13:20;96159.59;;;27.35;53.16
46614;BME280;32338;50.430;6.806;2022-07-25T12:15:47;96146.28;;;27.25;52.43
46614;BME280;32338;50.430;6.806;2022-07-25T12:18:14;96156.47;;;27.19;53.62
46614;BME280;32338;50.430;6.806;2022-07-25T12:20:42;96144.97;;;27.23;52.87
46614;BME280;32338;50.430;6.806;2022-07-25T12:23:10;96145.81;;;27.23;52.05
46614;BME280;32338;50.430;6.806;2022-07-25T12:25:39;96145.47;;;27.25;52.11
46614;BME280;32338;50.430;6.806;2022-07-25T12:28:06;96140.16;;;27.11;52.94
46614;BME280;32338;50.430;6.806;2022-07-25T12:30:37;96141.75;;;27.12;52.46
46614;BME280;32338;50.430;6.806;2022-07-25T12:33:04;96131.66;;;27.03;52.71
46614;BME280;32338;50.430;6.806;2022-07-25T12:35:32;96143.06;;;26.92;53.39
46614;BME280;32338;50.430;6.806;2022-07-25T12:37:59;96140.28;;;26.83;53.68
46614;BME280;32338;50.430;6.806;2022-07-25T12:40:25;96150.16;;;26.79;53.51
46614;BME280;32338;50.430;6.806;2022-07-25T12:42:52;96150.06;;;26.70;54.08
46614;BME280;32338;50.430;6.806;2022-07-25T12:45:19;96158.16;;;26.84;54.75
46614;BME280;32338;50.430;6.806;2022-07-25T12:47:48;96156.50;;;26.74;54.66
46614;BME280;32338;50.430;6.806;2022-07-25T12:50:15;96157.38;;;26.83;55.19
46614;BME280;32338;50.430;6.806;2022-07-25T12:52:44;96152.59;;;26.89;54.02
46614;BME280;32338;50.430;6.806;2022-07-25T12:55:13;96154.25;;;26.99;55.18
46614;BME280;32338;50.430;6.806;2022-07-25T12:57:40;96151.78;;;27.11;55.28
46614;BME280;32338;50.430;6.806;2022-07-25T13:00:09;96155.25;;;27.03;53.46
46614;BME280;32338;50.430;6.806;2022-07-25T13:02:38;96153.59;;;26.93;54.19